ZF1RC George Town KY current weather conditions

sailwx.info

Wind from 047 at 2 knots gusting 2

Air temperature 24.4° C
Dewpoint 22.5° C

Last reported at 2016-May-30 02:50 UTC.
Time now 2016-May-30 03:05 UTC

Location: N 19°16' W 081°23'.
View on Google Maps.

See reports from other nearby stations

  
Tides and Currents Weather Stations Pressure Air Temp Water Temp Dewpoint Dewpoint Depression Visibility Wind Speed Wind Dir Waves Ship Positions
date/time (UTC)wind fromknots sea level pressurealtimeterstation pressurevisibilityair tempwater tempwave heightnotes
2016-May-30 02:50 047 2 gusting 2 24.4
2016-May-30 02:40 096 0 gusting 2 24.4
2016-May-30 02:30 083 2 gusting 2 23.9
2016-May-30 02:20 076 1 gusting 1 23.9
2016-May-30 02:10 076 1 gusting 2 23.9
2016-May-30 02:00 070 1 gusting 2 23.9
2016-May-30 01:50 095 0 gusting 1 23.9
2016-May-30 01:40 106 1 gusting 1 23.9
2016-May-30 01:30 077 1 gusting 5 23.9
2016-May-30 01:20 075 0 gusting 5 23.9
2016-May-30 01:10 098 1 gusting 2 23.9
2016-May-30 01:00 090 23.9
2016-May-30 00:50 062 0 gusting 2 23.9
2016-May-30 00:40 041 0 gusting 2 23.9
2016-May-30 00:30 031 0 gusting 2 23.9
2016-May-30 00:20 079 0 gusting 0 23.9
2016-May-30 00:10 078 0 gusting 1 23.9
2016-May-30 00:00 071 23.9
2016-May-29 23:50 084 1 gusting 1 23.9
2016-May-29 23:40 048 0 gusting 2 23.9
2016-May-29 23:30 082 1 gusting 5 23.9
2016-May-29 23:20 121 2 gusting 5 23.9
2016-May-29 23:00 032 1 gusting 5 23.9
2016-May-29 22:54 075 1 gusting 5 23.9
2016-May-29 22:40 080 5 gusting 6 24.4
2016-May-29 22:30 053 4 gusting 6 24.4
2016-May-29 22:20 351 4 gusting 6 24.4
2016-May-29 22:10 054 1 gusting 5 25.0
2016-May-29 22:00 086 5 gusting 6 26.1
2016-May-29 21:50 076 4 gusting 6 26.1
2016-May-29 21:40 001 0 gusting 0 26.1
2016-May-29 21:30 054 0 gusting 2 25.6
2016-May-29 21:20 021 1 gusting 2 25.6
2016-May-29 21:10 063 2 gusting 2 25.6
2016-May-29 21:00 333 3 gusting 7 25.6
2016-May-29 20:50 019 4 gusting 5 26.1
2016-May-29 20:40 047 1 gusting 4 27.2
2016-May-29 20:30 136 2 gusting 5 27.2
2016-May-29 20:20 016 0 gusting 1 26.7
2016-May-29 20:10 320 0 gusting 4 26.1
2016-May-29 20:00 016 2 gusting 4 26.1
2016-May-29 19:50 008 0 gusting 2 26.7
2016-May-29 19:40 011 2 gusting 2 27.8
2016-May-29 19:30 038 0 gusting 0 28.3
2016-May-29 19:20 067 28.9
2016-May-29 19:10 180 1 gusting 2 29.4
2016-May-29 19:00 252 0 gusting 5 30.0
2016-May-29 18:50 260 29.4
2016-May-29 18:40 089 2 gusting 7 28.9
2016-May-29 18:30 155 29.4
2016-May-29 18:20 053 0 gusting 5 29.4
2016-May-29 18:10 052 5 gusting 10 29.4
2016-May-29 18:00 069 1 gusting 5 29.4
2016-May-29 17:50 090 2 gusting 8 29.4
2016-May-29 17:40 097 1 gusting 4 30.6
2016-May-29 17:30 168 0 gusting 5 31.1
2016-May-29 17:20 099 0 gusting 0 31.1
2016-May-29 17:10 344 31.7
2016-May-29 17:00 036 0 gusting 1 30.6
2016-May-29 16:50 277 2 gusting 4 30.6
2016-May-29 16:40 082 29.4
2016-May-29 16:30 069 29.4
2016-May-29 16:20 024 2 gusting 5 30.0
2016-May-29 16:10 316 30.0
2016-May-29 16:00 089 4 gusting 8 30.0
2016-May-29 15:50 077 2 gusting 2 29.4
2016-May-29 15:40 140 5 gusting 6 28.9
2016-May-29 15:30 078 1 gusting 6 27.8
2016-May-29 15:20 106 4 gusting 6 26.7
2016-May-29 15:10 096 2 gusting 5 26.1
2016-May-29 15:00 003 0 gusting 4 25.0
2016-May-29 14:50 069 0 gusting 2 25.0
2016-May-29 14:40 079 0 gusting 5 23.9
2016-May-29 14:30 175 5 gusting 12 24.4
2016-May-29 14:20 145 4 gusting 6 28.3
2016-May-29 14:10 095 3 gusting 6 28.3
2016-May-29 14:00 071 2 gusting 6 28.9
2016-May-29 13:50 091 2 gusting 7 29.4
2016-May-29 13:40 047 2 gusting 7 30.0
2016-May-29 13:30 058 5 gusting 6 29.4
2016-May-29 13:20 035 5 gusting 6 28.3
2016-May-29 13:10 050 4 gusting 5 28.9
2016-May-29 13:00 083 3 gusting 7 29.4
2016-May-29 12:50 062 4 gusting 7 29.4
2016-May-29 12:40 108 5 gusting 6 29.4
2016-May-29 12:30 064 4 gusting 6 28.9
2016-May-29 12:10 067 2 gusting 4 28.3
2016-May-29 12:00 061 0 gusting 2 27.2
2016-May-29 11:50 043 2 gusting 2 26.7
2016-May-29 11:40 059 1 gusting 2 25.6
2016-May-29 11:30 078 0 gusting 2 25.6
2016-May-29 11:20 044 2 gusting 2 25.6
2016-May-29 11:10 083 0 gusting 1 25.0
2016-May-29 11:00 073 1 gusting 1 25.0
2016-May-29 10:50 106 0 gusting 1 25.0
2016-May-29 10:40 094 0 gusting 1 25.0
2016-May-29 10:30 102 1 gusting 2 25.0
2016-May-29 10:20 096 1 gusting 1 25.0
2016-May-29 10:10 098 2 gusting 2 25.0
2016-May-29 10:00 062 1 gusting 1 25.0
2016-May-29 09:50 041 0 gusting 1 25.0
2016-May-29 09:40 080 1 gusting 1 25.6
2016-May-29 09:30 088 0 gusting 1 25.6
2016-May-29 09:20 081 0 gusting 1 25.6
2016-May-29 09:10 099 1 gusting 1 25.6
2016-May-29 09:00 104 1 gusting 2 25.6
2016-May-29 08:50 096 1 gusting 2 25.6
2016-May-29 08:40 040 1 gusting 5 25.6
2016-May-29 08:30 070 1 gusting 2 25.6
2016-May-29 08:20 063 1 gusting 2 25.6
2016-May-29 08:10 116 1 gusting 2 25.6
2016-May-29 08:00 060 2 gusting 2 25.6
2016-May-29 07:50 114 1 gusting 4 25.6
2016-May-29 07:40 148 1 gusting 4 25.6
2016-May-29 07:30 098 0 gusting 1 25.6
2016-May-29 07:20 090 0 gusting 1 25.6
2016-May-29 07:10 078 1 gusting 2 25.6
2016-May-29 07:00 105 1 gusting 2 26.1
2016-May-29 06:50 105 1 gusting 2 26.1
2016-May-29 06:40 099 1 gusting 2 26.1
2016-May-29 06:30 071 1 gusting 4 26.1
2016-May-29 06:20 092 0 gusting 4 26.7
2016-May-29 06:10 082 1 gusting 2 26.7
2016-May-29 06:00 084 1 gusting 4 26.7
2016-May-29 05:50 079 3 gusting 4 26.7
2016-May-29 05:40 106 0 gusting 2 26.7
2016-May-29 05:30 120 2 gusting 2 26.7
2016-May-29 05:20 094 1 gusting 2 27.2
2016-May-29 05:10 028 0 gusting 1 27.2
2016-May-29 05:00 134 27.2
2016-May-29 04:50 084 1 gusting 2 27.2
2016-May-29 04:40 202 0 gusting 4 27.2
2016-May-29 04:30 292 0 gusting 0 27.2
2016-May-29 04:20 091 0 gusting 1 27.2
2016-May-29 04:10 029 27.2
2016-May-29 04:00 124 2 gusting 5 27.2
2016-May-29 03:50 086 1 gusting 5 27.2
2016-May-29 03:40 097 1 gusting 6 27.2
2016-May-29 03:30 081 0 gusting 1 27.2
2016-May-29 03:20 090 1 gusting 1 27.2
2016-May-29 03:10 101 0 gusting 1 27.2
2016-May-29 03:00 136 1 gusting 4 27.2
2016-May-29 02:50 104 3 gusting 4 27.2
2016-May-29 02:40 087 2 gusting 4 27.2
2016-May-29 02:30 086 0 gusting 6 27.2
2016-May-29 02:20 097 1 gusting 4 27.2
2016-May-29 02:10 228 0 gusting 2 27.2
2016-May-29 02:00 093 27.2
2016-May-29 01:50 080 0 gusting 1 27.2
2016-May-29 01:40 104 27.2
2016-May-29 01:30 135 1 gusting 1 27.2
2016-May-29 01:20 306 0 gusting 1 27.2
2016-May-29 01:10 251 27.8
2016-May-29 01:00 109 1 gusting 1 27.8
2016-May-29 00:30 168 0 gusting 1 27.8
2016-May-29 00:20 144 2 gusting 5 27.8
2016-May-29 00:10 352 27.8
2016-May-29 00:00 146 27.8
2016-May-28 23:50 091 2 gusting 4 28.3
2016-May-28 23:40 085 28.3
2016-May-28 23:30 129 0 gusting 6 28.3
2016-May-28 23:20 147 1 gusting 6 29.4
2016-May-28 23:10 068 0 gusting 1 29.4
2016-May-28 23:00 197 0 gusting 1 30.0
2016-May-28 22:54 271 0 gusting 0 30.0
2016-May-28 22:50 136 0 gusting 0 30.0
2016-May-28 22:40 30.0
2016-May-28 22:30 097 0 gusting 0 30.6
2016-May-28 22:20 186 30.6
2016-May-28 22:10 112 0 gusting 6 30.6
2016-May-28 22:00 298 1 gusting 2 30.6
2016-May-28 21:50 156 0 gusting 0 31.1
2016-May-28 21:40 150 30.6
2016-May-28 21:30 117 30.6
2016-May-28 21:20 115 0 gusting 5 30.0
2016-May-28 21:10 025 2 gusting 4 28.9
2016-May-28 21:00 032 4 gusting 5 27.8
2016-May-28 20:50 017 0 gusting 4 28.9
2016-May-28 20:40 098 0 gusting 6 29.4
2016-May-28 20:30 245 29.4
2016-May-28 20:20 062 30.6
2016-May-28 20:10 037 0 gusting 0 30.6
2016-May-28 20:00 114 31.7
2016-May-28 19:50 094 0 gusting 1 31.1
2016-May-28 19:40 089 0 gusting 1 30.6
2016-May-28 19:30 132 0 gusting 0 30.6
2016-May-28 19:20 326 0 gusting 1 32.2
2016-May-28 19:10 038 1 gusting 1 32.2
2016-May-28 19:00 258 0 gusting 0 32.2
2016-May-28 18:50 298 31.7
2016-May-28 18:40 251 0 gusting 1 31.7
2016-May-28 18:30 030 0 gusting 1 31.7
2016-May-28 18:20 098 31.7
2016-May-28 18:10 230 32.2
2016-May-28 18:00 182 0 gusting 0 31.7
2016-May-28 17:50 163 0 gusting 1 31.7
2016-May-28 17:40 344 1 gusting 2 32.2
2016-May-28 17:30 144 0 gusting 1 32.2
2016-May-28 17:20 169 31.7
2016-May-28 17:10 107 31.7
2016-May-28 17:00 248 0 gusting 2 31.7
2016-May-28 16:50 118 0 gusting 2 31.1
2016-May-28 16:40 107 0 gusting 2 31.7
2016-May-28 16:30 150 0 gusting 2 31.7
2016-May-28 16:20 183 0 gusting 1 31.1
2016-May-28 16:10 095 31.1
2016-May-28 16:00 032 0 gusting 2 31.1
2016-May-28 15:50 158 5 gusting 8 30.0
2016-May-28 15:40 243 4 gusting 6 30.6
2016-May-28 15:30 159 0 gusting 1 30.6
2016-May-28 15:20 037 31.1
2016-May-28 15:10 166 0 gusting 2 31.1
2016-May-28 15:00 188 30.6
2016-May-28 14:50 215 30.6
2016-May-28 14:40 145 0 gusting 4 30.6
2016-May-28 14:30 049 0 gusting 4 30.6
2016-May-28 14:20 084 1 gusting 6 30.6
2016-May-28 14:10 088 1 gusting 6 30.0
2016-May-28 14:00 046 30.6
2016-May-28 13:50 166 1 gusting 2 30.6
2016-May-28 13:40 063 0 gusting 1 30.6
2016-May-28 13:30 150 30.0
2016-May-28 13:20 255 0 gusting 0 30.0
2016-May-28 13:10 202 0 gusting 0 29.4
2016-May-28 13:00 148 0 gusting 0 29.4
2016-May-28 12:50 117 0 gusting 4 28.9
2016-May-28 12:40 103 0 gusting 0 28.3
2016-May-28 12:30 226 27.2
2016-May-28 12:20 229 0 gusting 1 26.7
2016-May-28 12:10 148 1 gusting 2 27.2
2016-May-28 12:00 061 1 gusting 1 26.7
2016-May-28 11:50 071 1 gusting 1 26.1
2016-May-28 11:40 015 1 gusting 1 25.6
2016-May-28 11:30 081 0 gusting 0 25.6
2016-May-28 11:20 097 0 gusting 1 25.0
2016-May-28 11:10 104 0 gusting 0 25.0
2016-May-28 11:00 324 25.0
2016-May-28 10:50 097 25.0
2016-May-28 10:40 179 2 gusting 5 25.0
2016-May-28 10:30 085 2 gusting 2 25.0
2016-May-28 10:20 072 2 gusting 4 25.6
2016-May-28 10:10 082 2 gusting 2 25.6
2016-May-28 10:00 089 1 gusting 4 25.6
2016-May-28 09:50 075 0 gusting 4 25.6
2016-May-28 09:40 082 1 gusting 2 25.6
2016-May-28 09:30 132 1 gusting 5 25.6
2016-May-28 09:20 059 2 gusting 2 25.0
2016-May-28 09:10 087 1 gusting 2 25.6
2016-May-28 09:00 082 1 gusting 2 25.6
2016-May-28 08:50 092 1 gusting 2 25.6
2016-May-28 08:40 095 2 gusting 4 25.6
2016-May-28 08:30 089 3 gusting 4 26.1
2016-May-28 08:20 103 1 gusting 4 26.1
2016-May-28 08:10 060 0 gusting 2 26.1
2016-May-28 08:00 102 1 gusting 1 26.1
2016-May-28 07:50 092 1 gusting 2 26.1
2016-May-28 07:40 208 26.7
2016-May-28 07:30 121 26.7
2016-May-28 07:20 127 26.7
2016-May-28 07:10 151 0 gusting 6 26.7
2016-May-28 07:00 164 0 gusting 0 26.7
2016-May-28 06:50 152 26.7
2016-May-28 06:40 074 0 gusting 0 26.7
2016-May-28 06:30 167 0 gusting 0 26.7
2016-May-28 06:20 077 0 gusting 0 26.7
2016-May-28 06:10 105 26.7
2016-May-28 06:00 084 26.7
2016-May-28 05:50 092 0 gusting 0 26.7
2016-May-28 05:40 094 26.7
2016-May-28 05:30 081 26.7
2016-May-28 05:20 123 0 gusting 0 26.7
2016-May-28 05:10 001 26.7
2016-May-28 04:50 128 0 gusting 1 26.7
2016-May-28 04:40 184 0 gusting 2 26.7
2016-May-28 04:30 049 1 gusting 4 26.7
2016-May-28 04:20 143 3 gusting 4 26.7
2016-May-28 04:10 190 2 gusting 2 26.7
2016-May-28 04:00 100 26.7
2016-May-28 03:50 162 3 gusting 4 26.7
2016-May-28 03:40 112 0 gusting 6 26.7
2016-May-28 03:30 094 26.7
2016-May-28 03:20 131 26.7
2016-May-28 03:10 168 0 gusting 1 27.2
2016-May-28 03:00 148 26.7